Mears, VA (23409)

11:44 AM EST on November 27, 2014 (GMT -0500)
Turkey's Rest | Change Station
CLOSE
Current Station
Personal Weather Station
Location: Bloxom, VA
Elevation: 23 ft
Nearby Weather Stations

Elev 23 ft 37.85 °N, 75.59 °W | Updated 3 seconds ago

Overcast
Overcast
45.1 °F
Feels Like 45 °F
N
2.9
Wind Variable Wind from North
Gusts 4.0 mph

Today
High -- | Low -- °F
--% Chance of Precip.
Yesterday
High -- | Low -- °F
Precip. -- in
6:55 AM 4:44 PM
Waxing Crescent, 31% visible
Pressure 30.05 in
Visibility 10.0 miles
Clouds Mostly Cloudy 6000 ft
Overcast 8500 ft
Windchill 45 °F
Dew Point 40 °F
Humidity 83%
Rainfall 0.00 in
Snow Depth Not available.
UV 1 out of 12
Pollen .10 out of 12
Air Quality Not available.
Flu Activity Not available.
METAR KWAL 271554Z AUTO 31005KT 10SM BKN060 OVC085 06/02 A3006 RMK AO2 SLP175 T00610022

More Conditions Fewer Conditions

Pressure 30.05 in
Visibility 10.0 miles
Clouds Mostly Cloudy 6000 ft
Overcast 8500 ft
Windchill 45 °F
Dew Point 40 °F
Humidity 83%
Rainfall 0.00 in
Snow Depth Not available.
UV 1 out of 12
Pollen .10 out of 12
Air Quality Not available.
Flu Activity Not available.
METAR KWAL 271554Z AUTO 31005KT 10SM BKN060 OVC085 06/02 A3006 RMK AO2 SLP175 T00610022

More Conditions Fewer Conditions

10-Day Weather Forecast

Almanac

Astronomy

Nov. 27, 2014 Rise Set
Actual Time
Civil Twilight
Nautical Twilight
Astronomical Twilight
Moon
Length of Visible Light
Length of Day
Tomorrow will be .
, % of the Moon is Illuminated

Today's Extremes

State Highs State Lows

Community

WunderPhotos

Upload Photos

1,774,034 photos uploaded!

WunderBlogs® & News

Nearby

Air Quality

  Air Quality AQ Index Pollutant
Not available.

Snow Depth

Station Depth Elevation

Earthquake Activity

City Distance Mag. Time & Date
Minimum magnitude displayed is 2.5.

Coastal Water Temperatures

Place Temperature

Nearby Weather Stations